createdAt,value
2022-11-17T00:00:44.352Z,12.30
2022-11-17T00:03:16.024Z,12.20
2022-11-17T00:05:44.398Z,12.20
2022-11-17T00:08:12.732Z,12.10
2022-11-17T00:10:40.941Z,12.10
2022-11-17T00:13:28.567Z,12.10
2022-11-17T00:15:58.100Z,12.00
2022-11-17T00:18:43.704Z,12.00
2022-11-17T00:21:21.250Z,12.00
2022-11-17T00:23:50.357Z,11.90
2022-11-17T00:26:20.522Z,12.00
2022-11-17T00:28:48.977Z,11.90
2022-11-17T00:31:35.853Z,11.90
2022-11-17T00:34:06.752Z,11.90
2022-11-17T00:36:38.023Z,11.80
2022-11-17T00:39:07.121Z,11.80
2022-11-17T00:41:35.333Z,11.80
2022-11-17T00:44:03.713Z,11.70
2022-11-17T00:46:33.586Z,11.70
2022-11-17T00:49:01.865Z,11.70
2022-11-17T00:51:30.298Z,11.70
2022-11-17T00:53:58.476Z,11.70
2022-11-17T00:56:27.467Z,11.70
2022-11-17T00:58:55.707Z,11.70
2022-11-17T01:01:24.817Z,11.70
2022-11-17T01:04:02.982Z,11.70
2022-11-17T01:06:33.227Z,11.80
2022-11-17T01:09:01.714Z,11.80
2022-11-17T01:11:30.295Z,11.90
2022-11-17T01:14:00.524Z,11.90
2022-11-17T01:16:30.090Z,11.90
2022-11-17T01:19:01.183Z,11.90
2022-11-17T01:21:30.981Z,12.00
2022-11-17T01:24:01.104Z,12.00
2022-11-17T01:26:31.418Z,12.00
2022-11-17T01:29:00.386Z,12.00
2022-11-17T01:31:30.565Z,12.00
2022-11-17T01:34:00.320Z,12.00
2022-11-17T01:36:30.920Z,12.10
2022-11-17T01:38:59.126Z,12.10
2022-11-17T01:41:29.370Z,12.10
2022-11-17T01:43:58.639Z,12.10
2022-11-17T01:46:31.814Z,12.20
2022-11-17T01:49:08.331Z,12.20
2022-11-17T01:51:39.405Z,12.20
2022-11-17T01:54:09.232Z,12.20
2022-11-17T01:56:43.482Z,12.20
2022-11-17T01:59:18.345Z,12.20
2022-11-17T02:01:56.705Z,12.20
2022-11-17T02:04:29.254Z,12.20
2022-11-17T02:07:02.550Z,12.20
2022-11-17T02:09:30.950Z,12.20
2022-11-17T02:12:00.159Z,12.20
2022-11-17T02:14:29.326Z,12.20
2022-11-17T02:17:01.357Z,12.20
2022-11-17T02:19:38.718Z,12.20
2022-11-17T02:22:34.747Z,12.20
2022-11-17T02:25:44.349Z,12.20
2022-11-17T02:28:19.208Z,12.20
2022-11-17T02:31:00.585Z,12.20
2022-11-17T02:33:38.196Z,12.20
2022-11-17T02:36:11.063Z,12.20
2022-11-17T02:38:45.089Z,12.20
2022-11-17T02:41:23.036Z,12.20
2022-11-17T02:44:06.781Z,12.20
2022-11-17T02:46:45.829Z,12.20
2022-11-17T02:49:20.895Z,12.20
2022-11-17T02:51:52.845Z,12.20
2022-11-17T02:54:22.826Z,12.20
2022-11-17T02:56:51.008Z,12.20
2022-11-17T02:59:23.984Z,12.20
2022-11-17T03:02:16.301Z,12.20
2022-11-17T03:04:55.888Z,12.20
2022-11-17T03:07:41.711Z,12.20
2022-11-17T03:10:15.679Z,12.10
2022-11-17T03:12:49.171Z,12.10
2022-11-17T03:15:26.088Z,12.10
2022-11-17T03:18:04.350Z,12.00
2022-11-17T03:20:40.671Z,12.00
2022-11-17T03:23:13.414Z,12.00
2022-11-17T03:25:46.807Z,12.00
2022-11-17T03:28:18.738Z,12.00
2022-11-17T03:30:50.333Z,12.00
2022-11-17T03:33:22.810Z,12.00
2022-11-17T03:35:56.193Z,12.00
2022-11-17T03:38:27.828Z,12.00
2022-11-17T03:40:59.473Z,12.00
2022-11-17T03:43:29.569Z,12.00
2022-11-17T03:46:04.501Z,12.00
2022-11-17T03:48:38.006Z,12.00
2022-11-17T03:51:10.300Z,12.00
2022-11-17T03:53:38.993Z,12.00
2022-11-17T03:56:16.278Z,12.00
2022-11-17T03:58:51.539Z,12.00
2022-11-17T04:01:22.211Z,12.00
2022-11-17T04:03:50.547Z,12.00
2022-11-17T04:06:18.768Z,11.90
2022-11-17T04:08:47.134Z,11.90
2022-11-17T04:11:32.757Z,11.90
2022-11-17T04:14:19.106Z,11.80
2022-11-17T04:16:48.644Z,11.80
2022-11-17T04:19:16.835Z,11.70
2022-11-17T04:21:45.036Z,11.70
2022-11-17T04:24:13.198Z,11.60
2022-11-17T04:26:58.669Z,11.60
2022-11-17T04:29:26.799Z,11.60
2022-11-17T04:31:56.366Z,11.50
2022-11-17T04:34:24.613Z,11.50
2022-11-17T04:36:52.823Z,11.50
2022-11-17T04:39:20.998Z,11.40
2022-11-17T04:41:54.113Z,11.40
2022-11-17T04:44:24.124Z,11.40
2022-11-17T04:46:52.917Z,11.40
2022-11-17T04:49:23.902Z,11.30
2022-11-17T04:51:52.690Z,11.30
2022-11-17T04:54:23.087Z,11.30
2022-11-17T04:56:51.977Z,11.30
2022-11-17T04:59:20.281Z,11.30
2022-11-17T05:01:48.982Z,11.30
2022-11-17T05:04:39.396Z,11.30
2022-11-17T05:07:10.351Z,11.30
2022-11-17T05:09:38.566Z,11.30
2022-11-17T05:12:24.535Z,11.30
2022-11-17T05:14:52.727Z,11.30
2022-11-17T05:17:19.904Z,11.30
2022-11-17T05:19:49.657Z,11.30
2022-11-17T05:22:39.771Z,11.30
2022-11-17T05:25:09.005Z,11.30
2022-11-17T05:27:37.457Z,11.20
2022-11-17T05:30:07.743Z,11.20
2022-11-17T05:32:36.162Z,11.20
2022-11-17T05:35:04.437Z,11.20
2022-11-17T05:37:34.014Z,11.20
2022-11-17T05:40:02.205Z,11.10
2022-11-17T05:42:30.368Z,11.10
2022-11-17T05:44:58.553Z,11.10
2022-11-17T05:47:26.723Z,11.10
2022-11-17T05:49:54.886Z,11.10
2022-11-17T05:52:22.995Z,11.10
2022-11-17T05:54:52.600Z,11.10
2022-11-17T05:57:29.219Z,11.20
2022-11-17T06:00:01.813Z,11.20
2022-11-17T06:02:34.584Z,11.10
2022-11-17T06:05:03.599Z,11.20
2022-11-17T06:07:31.864Z,11.20
2022-11-17T06:10:01.608Z,11.20
2022-11-17T06:12:29.910Z,11.20
2022-11-17T06:14:58.066Z,11.20
2022-11-17T06:17:29.530Z,11.20
2022-11-17T06:20:01.667Z,11.20
2022-11-17T06:22:31.306Z,11.20
2022-11-17T06:25:03.067Z,11.10
2022-11-17T06:27:33.136Z,11.10
2022-11-17T06:30:03.411Z,11.10
2022-11-17T06:32:32.715Z,11.10
2022-11-17T06:35:02.584Z,11.10
2022-11-17T06:37:30.785Z,11.10
2022-11-17T06:39:58.926Z,11.20
2022-11-17T06:42:42.296Z,11.20
2022-11-17T06:45:11.567Z,11.30
2022-11-17T06:47:39.884Z,11.30
2022-11-17T06:50:09.470Z,11.30
2022-11-17T06:52:38.230Z,11.40
2022-11-17T06:55:07.305Z,11.40
2022-11-17T06:57:36.884Z,11.50
2022-11-17T07:00:07.250Z,11.50
2022-11-17T07:02:36.762Z,11.50
2022-11-17T07:05:05.706Z,11.50
2022-11-17T07:07:34.051Z,11.50
2022-11-17T07:10:02.360Z,11.60
2022-11-17T07:12:30.633Z,11.60
2022-11-17T07:15:00.272Z,11.60
2022-11-17T07:17:29.624Z,11.70
2022-11-17T07:19:57.948Z,11.70
2022-11-17T07:22:26.130Z,11.70
2022-11-17T07:24:54.328Z,11.70
2022-11-17T07:27:22.678Z,11.80
2022-11-17T07:29:50.915Z,11.80
2022-11-17T07:32:20.488Z,11.90
2022-11-17T07:34:48.874Z,11.90
2022-11-17T07:37:17.139Z,11.80
2022-11-17T07:39:45.527Z,11.90
2022-11-17T07:42:13.763Z,11.90
2022-11-17T07:44:42.007Z,11.90
2022-11-17T07:47:10.182Z,11.80
2022-11-17T07:49:39.797Z,11.70
2022-11-17T07:52:08.024Z,11.60
2022-11-17T07:54:36.267Z,11.50
2022-11-17T07:57:05.064Z,11.40
2022-11-17T07:59:33.524Z,11.30
2022-11-17T08:02:01.708Z,11.30
2022-11-17T08:04:29.936Z,11.30
2022-11-17T08:06:59.572Z,11.30
2022-11-17T08:09:27.831Z,11.30
2022-11-17T08:11:57.628Z,11.20
2022-11-17T08:14:25.844Z,11.20
2022-11-17T08:16:54.056Z,11.10
2022-11-17T08:19:22.368Z,11.20
2022-11-17T08:21:51.090Z,11.20
2022-11-17T08:24:21.031Z,11.20
2022-11-17T08:26:49.262Z,11.20
2022-11-17T08:29:18.937Z,11.10
2022-11-17T08:31:47.877Z,11.20
2022-11-17T08:34:16.115Z,11.30
2022-11-17T08:36:44.367Z,11.30
2022-11-17T08:39:12.660Z,11.30
2022-11-17T08:41:42.261Z,11.30
2022-11-17T08:44:10.456Z,11.30
2022-11-17T08:46:38.659Z,11.40
2022-11-17T08:49:06.902Z,11.40
2022-11-17T08:51:35.261Z,11.40
2022-11-17T08:54:03.447Z,11.50
2022-11-17T08:56:31.723Z,11.50
2022-11-17T08:59:03.608Z,11.60
2022-11-17T09:01:32.002Z,11.70
2022-11-17T09:04:00.254Z,11.70
2022-11-17T09:06:28.456Z,11.70
2022-11-17T09:08:56.808Z,11.80
2022-11-17T09:11:25.332Z,11.80
2022-11-17T09:13:53.664Z,11.80
2022-11-17T09:16:24.079Z,11.80
2022-11-17T09:18:57.017Z,11.90
2022-11-17T09:21:27.211Z,11.90
2022-11-17T09:23:55.544Z,11.90
2022-11-17T09:26:23.920Z,11.90
2022-11-17T09:28:52.140Z,12.00
2022-11-17T09:31:23.540Z,12.00
2022-11-17T09:33:51.972Z,12.00
2022-11-17T09:36:20.298Z,12.10
2022-11-17T09:38:48.843Z,12.20
2022-11-17T09:41:26.751Z,12.20
2022-11-17T09:44:16.461Z,12.20
2022-11-17T09:47:02.794Z,12.30
2022-11-17T09:49:58.998Z,12.20
2022-11-17T09:52:32.089Z,12.30
2022-11-17T09:55:02.650Z,12.40
2022-11-17T09:57:38.860Z,12.40
2022-11-17T10:00:14.820Z,12.40
2022-11-17T10:02:44.773Z,12.50
2022-11-17T10:05:17.350Z,12.50
2022-11-17T10:07:50.287Z,12.50
2022-11-17T10:10:22.984Z,12.50
2022-11-17T10:12:54.382Z,12.60
2022-11-17T10:15:28.590Z,12.60
2022-11-17T10:17:58.478Z,12.60
2022-11-17T10:20:26.703Z,12.70
2022-11-17T10:22:55.699Z,12.70
2022-11-17T10:25:37.285Z,12.70
2022-11-17T10:28:07.789Z,12.80
2022-11-17T10:30:36.603Z,12.80
2022-11-17T10:33:06.339Z,12.70
2022-11-17T10:35:35.938Z,12.80
2022-11-17T10:38:06.920Z,12.80
2022-11-17T10:40:48.460Z,12.80
2022-11-17T10:43:25.289Z,12.80
2022-11-17T10:45:55.707Z,12.90
2022-11-17T10:48:29.225Z,13.00
2022-11-17T10:50:59.160Z,13.00
2022-11-17T10:53:45.145Z,13.00
2022-11-17T10:56:17.828Z,13.10
2022-11-17T10:59:12.695Z,13.10
2022-11-17T11:01:42.546Z,13.20
2022-11-17T11:04:34.695Z,13.30
2022-11-17T11:07:12.470Z,13.30
2022-11-17T11:09:46.495Z,13.30
2022-11-17T11:12:18.632Z,13.30
2022-11-17T11:14:51.850Z,13.30
2022-11-17T11:17:20.352Z,13.30
2022-11-17T11:19:54.164Z,13.40
2022-11-17T11:22:32.925Z,13.40
2022-11-17T11:25:17.600Z,13.50
2022-11-17T11:27:57.410Z,13.60
2022-11-17T11:30:25.849Z,13.70
2022-11-17T11:33:07.366Z,13.70
2022-11-17T11:35:51.174Z,13.80
2022-11-17T11:38:39.501Z,13.80
2022-11-17T11:41:28.505Z,13.90
2022-11-17T11:44:10.252Z,13.90
2022-11-17T11:46:48.033Z,14.00
2022-11-17T11:49:26.442Z,14.00
2022-11-17T11:51:56.121Z,14.10
2022-11-17T11:54:33.186Z,14.10
2022-11-17T11:57:02.677Z,14.10
2022-11-17T11:59:39.907Z,14.20
2022-11-17T12:02:25.840Z,14.30
2022-11-17T12:05:05.166Z,14.20
2022-11-17T12:07:44.012Z,14.30
2022-11-17T12:10:17.904Z,14.40
2022-11-17T12:12:47.576Z,14.40
2022-11-17T12:15:37.861Z,14.40
2022-11-17T12:18:12.504Z,14.40
2022-11-17T12:20:58.936Z,14.50
2022-11-17T12:24:10.181Z,14.50
2022-11-17T12:26:38.988Z,14.40
2022-11-17T12:29:47.138Z,14.50
2022-11-17T12:32:52.766Z,14.40
2022-11-17T12:35:25.859Z,14.30
2022-11-17T12:38:27.085Z,14.30
2022-11-17T12:40:56.789Z,14.30
2022-11-17T12:43:26.432Z,14.30
2022-11-17T12:46:14.353Z,14.20
2022-11-17T12:48:50.926Z,14.20
2022-11-17T12:51:28.162Z,14.20
2022-11-17T12:54:05.844Z,14.20
2022-11-17T12:56:42.874Z,14.20
2022-11-17T12:59:35.410Z,14.20
2022-11-17T13:02:18.405Z,14.20
2022-11-17T13:04:50.380Z,14.20
2022-11-17T13:07:21.642Z,14.20
2022-11-17T13:09:52.965Z,14.20
2022-11-17T13:12:25.593Z,14.30
2022-11-17T13:14:56.045Z,14.20
2022-11-17T13:17:29.595Z,14.20
2022-11-17T13:20:02.687Z,14.20
2022-11-17T13:22:31.006Z,14.20
2022-11-17T13:24:59.857Z,14.20
2022-11-17T13:27:31.755Z,14.30
2022-11-17T13:30:22.804Z,14.30
2022-11-17T13:32:51.693Z,14.40
2022-11-17T13:35:27.384Z,14.50
2022-11-17T13:38:08.369Z,14.50
2022-11-17T13:40:41.527Z,14.50
2022-11-17T13:43:21.740Z,14.50
2022-11-17T13:45:51.119Z,14.60
2022-11-17T13:48:33.334Z,14.70
2022-11-17T13:51:24.804Z,14.70
2022-11-17T13:53:56.828Z,14.80
2022-11-17T13:56:32.897Z,14.80
2022-11-17T13:59:06.306Z,14.90
2022-11-17T14:01:34.789Z,14.90
2022-11-17T14:04:20.443Z,14.90
2022-11-17T14:06:57.518Z,14.80
2022-11-17T14:09:27.002Z,14.80
2022-11-17T14:11:55.697Z,14.90
2022-11-17T14:14:33.483Z,14.90
2022-11-17T14:17:13.194Z,14.90
2022-11-17T14:19:41.436Z,14.80
2022-11-17T14:22:31.014Z,14.70
2022-11-17T14:25:00.455Z,14.70
2022-11-17T14:27:51.946Z,14.70
2022-11-17T14:30:24.135Z,14.70
2022-11-17T14:32:53.137Z,14.80
2022-11-17T14:35:21.394Z,14.70
2022-11-17T14:37:49.655Z,14.60
2022-11-17T14:40:18.961Z,14.60
2022-11-17T14:42:47.170Z,14.60
2022-11-17T14:45:16.715Z,14.50
2022-11-17T14:47:46.462Z,14.50
2022-11-17T14:50:16.982Z,14.50
2022-11-17T14:52:46.900Z,14.50
2022-11-17T14:55:15.491Z,14.50
2022-11-17T14:57:43.884Z,14.50
2022-11-17T15:00:17.373Z,14.50
2022-11-17T15:02:51.171Z,14.50
2022-11-17T15:05:19.420Z,14.50
2022-11-17T15:07:47.619Z,14.50
2022-11-17T15:10:15.812Z,14.40
2022-11-17T15:12:44.079Z,14.50
2022-11-17T15:15:12.489Z,14.50
2022-11-17T15:17:40.741Z,14.40
2022-11-17T15:20:11.539Z,14.40
2022-11-17T15:22:39.742Z,14.40
2022-11-17T15:25:09.404Z,14.30
2022-11-17T15:27:37.636Z,14.40
2022-11-17T15:30:06.803Z,14.40
2022-11-17T15:32:34.981Z,14.30
2022-11-17T15:35:03.144Z,14.40
2022-11-17T15:37:32.764Z,14.30
2022-11-17T15:40:00.990Z,14.30
2022-11-17T15:42:29.210Z,14.30
2022-11-17T15:44:57.398Z,14.20
2022-11-17T15:47:25.627Z,14.30
2022-11-17T15:49:58.674Z,14.30
2022-11-17T15:52:48.523Z,14.20
2022-11-17T15:55:17.027Z,14.20
2022-11-17T15:57:45.181Z,14.20
2022-11-17T16:00:14.601Z,14.20
2022-11-17T16:02:43.110Z,14.20
2022-11-17T16:05:11.345Z,14.10
2022-11-17T16:07:39.898Z,14.10
2022-11-17T16:10:08.601Z,14.10
2022-11-17T16:12:38.226Z,14.00
2022-11-17T16:15:09.482Z,14.10
2022-11-17T16:17:37.636Z,14.00
2022-11-17T16:20:06.782Z,13.90
2022-11-17T16:22:35.057Z,14.00
2022-11-17T16:25:04.341Z,13.90
2022-11-17T16:27:33.003Z,13.90
2022-11-17T16:30:02.581Z,14.00
2022-11-17T16:32:32.739Z,13.90
2022-11-17T16:35:00.901Z,13.90
2022-11-17T16:37:29.148Z,13.90
2022-11-17T16:39:57.311Z,13.90
2022-11-17T16:42:25.508Z,13.90
2022-11-17T16:44:53.872Z,13.90
2022-11-17T16:47:23.523Z,13.90
2022-11-17T16:49:51.984Z,13.90
2022-11-17T16:52:20.272Z,13.90
2022-11-17T16:54:48.443Z,13.90
2022-11-17T16:57:16.689Z,13.80
2022-11-17T16:59:44.920Z,13.80
2022-11-17T17:02:13.882Z,13.80
2022-11-17T17:04:43.420Z,13.80
2022-11-17T17:07:11.697Z,13.90
2022-11-17T17:09:39.957Z,13.80
2022-11-17T17:12:08.228Z,13.80
2022-11-17T17:14:36.501Z,13.80
2022-11-17T17:17:04.770Z,13.70
2022-11-17T17:19:33.103Z,13.80
2022-11-17T17:22:03.175Z,13.70
2022-11-17T17:24:31.399Z,13.80
2022-11-17T17:26:59.570Z,13.80
2022-11-17T17:29:27.772Z,13.70
2022-11-17T17:31:56.218Z,13.80
2022-11-17T17:34:24.420Z,13.70
2022-11-17T17:36:52.598Z,13.80
2022-11-17T17:39:22.147Z,13.80
2022-11-17T17:41:50.322Z,13.90
2022-11-17T17:44:20.393Z,14.00
2022-11-17T17:46:49.338Z,14.00
2022-11-17T17:49:19.010Z,14.00
2022-11-17T17:51:47.760Z,14.10
2022-11-17T17:54:17.995Z,14.10
2022-11-17T17:56:48.536Z,14.10
2022-11-17T17:59:17.434Z,14.20
2022-11-17T18:01:47.822Z,14.20
2022-11-17T18:04:17.347Z,14.20
2022-11-17T18:06:48.092Z,14.30
2022-11-17T18:09:19.390Z,14.20
2022-11-17T18:11:51.204Z,14.10
2022-11-17T18:14:22.503Z,14.00
2022-11-17T18:16:51.448Z,14.00
2022-11-17T18:19:20.066Z,13.90
2022-11-17T18:21:48.290Z,13.90
2022-11-17T18:24:16.529Z,13.90
2022-11-17T18:26:44.743Z,13.80
2022-11-17T18:29:18.480Z,13.80
2022-11-17T18:31:47.888Z,13.80
2022-11-17T18:34:18.853Z,13.80
2022-11-17T18:36:47.257Z,13.80
2022-11-17T18:39:16.281Z,13.80
2022-11-17T18:41:44.837Z,13.70
2022-11-17T18:44:15.226Z,13.70
2022-11-17T18:46:43.625Z,13.70
2022-11-17T18:49:12.023Z,13.70
2022-11-17T18:51:40.306Z,13.70
2022-11-17T18:54:08.977Z,13.60
2022-11-17T18:56:38.437Z,13.60
2022-11-17T18:59:11.546Z,13.60
2022-11-17T19:01:43.016Z,13.50
2022-11-17T19:04:13.311Z,13.50
2022-11-17T19:06:41.710Z,13.50
2022-11-17T19:09:10.857Z,13.50
2022-11-17T19:11:39.088Z,13.40
2022-11-17T19:14:07.513Z,13.40
2022-11-17T19:16:44.626Z,13.30
2022-11-17T19:19:15.529Z,13.30
2022-11-17T19:21:44.297Z,13.30
2022-11-17T19:24:12.679Z,13.30
2022-11-17T19:26:41.119Z,13.20
2022-11-17T19:29:16.851Z,13.20
2022-11-17T19:31:46.552Z,13.20
2022-11-17T19:34:16.508Z,13.20
2022-11-17T19:36:45.516Z,13.20
2022-11-17T19:39:14.879Z,13.20
2022-11-17T19:41:43.784Z,13.10
2022-11-17T19:44:12.480Z,13.10
2022-11-17T19:46:40.788Z,13.10
2022-11-17T19:49:09.097Z,13.10
2022-11-17T19:51:38.703Z,13.10
2022-11-17T19:54:08.991Z,13.00
2022-11-17T19:56:38.493Z,13.00
2022-11-17T19:59:10.940Z,13.00
2022-11-17T20:01:40.823Z,13.00
2022-11-17T20:04:09.011Z,13.00
2022-11-17T20:06:39.895Z,12.90
2022-11-17T20:09:09.393Z,12.90
2022-11-17T20:11:37.963Z,12.80
2022-11-17T20:14:06.310Z,12.80
2022-11-17T20:16:34.719Z,12.90
2022-11-17T20:19:03.519Z,12.80
2022-11-17T20:21:32.536Z,12.80
2022-11-17T20:24:02.782Z,12.80
2022-11-17T20:26:32.871Z,12.80
2022-11-17T20:29:01.719Z,12.80
2022-11-17T20:31:31.916Z,12.80
2022-11-17T20:34:01.675Z,12.70
2022-11-17T20:36:32.607Z,12.70
2022-11-17T20:39:04.188Z,12.70
2022-11-17T20:41:32.506Z,12.60
2022-11-17T20:44:02.454Z,12.70
2022-11-17T20:46:31.028Z,12.70
2022-11-17T20:48:59.234Z,12.70
2022-11-17T20:51:27.746Z,12.70
2022-11-17T20:53:55.962Z,12.70
2022-11-17T20:56:25.520Z,12.70
2022-11-17T20:58:53.715Z,12.60
2022-11-17T21:01:24.090Z,12.60
2022-11-17T21:03:52.753Z,12.70
2022-11-17T21:06:23.109Z,12.60
2022-11-17T21:08:51.972Z,12.70
2022-11-17T21:11:39.309Z,12.60
2022-11-17T21:14:10.553Z,12.70
2022-11-17T21:16:40.312Z,12.60
2022-11-17T21:19:09.161Z,12.60
2022-11-17T21:21:37.538Z,12.70
2022-11-17T21:24:06.572Z,12.60
2022-11-17T21:26:35.004Z,12.70
2022-11-17T21:29:06.725Z,12.70
2022-11-17T21:31:36.721Z,12.70
2022-11-17T21:34:07.162Z,12.70
2022-11-17T21:36:36.634Z,12.70
2022-11-17T21:39:05.754Z,12.70
2022-11-17T21:41:36.234Z,12.60
2022-11-17T21:44:04.736Z,12.60
2022-11-17T21:46:35.314Z,12.60
2022-11-17T21:49:05.080Z,12.60
2022-11-17T21:51:37.862Z,12.60
2022-11-17T21:54:07.969Z,12.60
2022-11-17T21:56:36.544Z,12.60
2022-11-17T21:59:06.621Z,12.60
2022-11-17T22:01:35.924Z,12.50
2022-11-17T22:04:05.912Z,12.50
2022-11-17T22:06:34.252Z,12.50
2022-11-17T22:09:02.458Z,12.60
2022-11-17T22:11:38.466Z,12.60
2022-11-17T22:14:09.246Z,12.60
2022-11-17T22:16:39.187Z,12.60
2022-11-17T22:19:09.655Z,12.60
2022-11-17T22:21:38.858Z,12.60
2022-11-17T22:24:09.461Z,12.60
2022-11-17T22:26:38.551Z,12.60
2022-11-17T22:29:08.294Z,12.60
2022-11-17T22:31:36.529Z,12.60
2022-11-17T22:34:05.073Z,12.60
2022-11-17T22:36:34.696Z,12.60
2022-11-17T22:39:03.107Z,12.60
2022-11-17T22:41:31.339Z,12.60
2022-11-17T22:43:59.545Z,12.70
2022-11-17T22:46:29.106Z,12.70
2022-11-17T22:48:57.590Z,12.70
2022-11-17T22:51:58.408Z,12.70
2022-11-17T22:54:28.038Z,12.70
2022-11-17T22:56:56.263Z,12.70
2022-11-17T22:59:24.871Z,12.70
2022-11-17T23:01:53.111Z,12.60
2022-11-17T23:04:23.008Z,12.70
2022-11-17T23:06:51.440Z,12.70
2022-11-17T23:09:19.874Z,12.70
2022-11-17T23:11:49.572Z,12.70
2022-11-17T23:14:17.793Z,12.70
2022-11-17T23:16:45.983Z,12.70
2022-11-17T23:19:15.216Z,12.70
2022-11-17T23:21:43.747Z,12.70
2022-11-17T23:24:13.037Z,12.70
2022-11-17T23:26:41.678Z,12.70
2022-11-17T23:29:11.834Z,12.70
2022-11-17T23:31:40.148Z,12.80
2022-11-17T23:34:11.274Z,12.80
2022-11-17T23:36:39.630Z,12.80
2022-11-17T23:39:07.817Z,12.80
2022-11-17T23:41:35.997Z,12.80
2022-11-17T23:44:04.215Z,12.80
2022-11-17T23:46:33.779Z,12.90
2022-11-17T23:49:02.077Z,12.90
2022-11-17T23:51:30.316Z,12.90
2022-11-17T23:54:00.513Z,12.90
2022-11-17T23:56:28.830Z,12.90
2022-11-17T23:58:57.062Z,12.90
